Goliath — WDD5869 — position and weather

sailwx.info

Track history (hours):
 
Tides and Currents Weather Stations Pressure Air Temp Water Temp Dewpoint Dewpoint Depression Visibility Wind Speed Wind Dir Waves Ship Positions

Goliath

Owner: Seabulk Towing Services,Inc., Groves, TX. More information available from US FCC via Universal Licensing System and Coast Guard Vessel Documentation Center.

Last reported at 2018-Feb-18 05:30 UTC. Time now 2018-Feb-18 05:34 UTC.
Position N 30°06' W 093°17'.

Length 32 m; draft 14.8 m.

Type: Tug. MMSI: 366268061.

Date/timePositionNaut miles runAvg speedWind from/ knotsBaromVisibWave heightAir tempDewpointWater temp
2018-Feb-18 05:30N 30°06' W 093°17'0 0.0
2018-Feb-18 05:00N 30°06' W 093°17'0 0.0
2018-Feb-18 04:30N 30°06' W 093°17'0 0.0
2018-Feb-18 04:00N 30°06' W 093°17'0 0.0
2018-Feb-18 03:30N 30°06' W 093°17'0 0.0
2018-Feb-18 03:00N 30°06' W 093°17'0 0.0
2018-Feb-18 02:30N 30°06' W 093°17'0 0.0
2018-Feb-18 01:59N 30°06' W 093°17'0 0.4
2018-Feb-18 01:30N 30°07' W 093°18'2 4.2
2018-Feb-18 01:00N 30°07' W 093°20'3 6.8
2018-Feb-18 00:30N 30°10' W 093°19'1 1.2
2018-Feb-18 00:00N 30°11' W 093°19'0 0.0
2018-Feb-17 23:30N 30°11' W 093°19'0 0.0
2018-Feb-17 23:01N 30°11' W 093°19'4 8.1
2018-Feb-17 22:30N 30°13' W 093°15'1 1.1
2018-Feb-17 22:01N 30°13' W 093°16'1 2.5
2018-Feb-17 21:30N 30°13' W 093°17'0 0.0
2018-Feb-17 20:59N 30°13' W 093°17'2 3.8
2018-Feb-17 20:30N 30°12' W 093°17'1 1.1
2018-Feb-17 20:00N 30°11' W 093°18'0 0.6
2018-Feb-17 19:30N 30°12' W 093°18'3 4.8
2018-Feb-17 18:59N 30°13' W 093°15'0 0.0
2018-Feb-17 18:30N 30°13' W 093°15'0 0.0
2018-Feb-17 18:01N 30°13' W 093°15'0 0.0
2018-Feb-17 17:31N 30°13' W 093°15'0 0.0
2018-Feb-17 17:00N 30°13' W 093°15'0 0.0
2018-Feb-17 16:26N 30°13' W 093°15'0 0.0
2018-Feb-17 15:56N 30°13' W 093°15'0 0.0
2018-Feb-17 15:30N 30°13' W 093°15'0 0.0
2018-Feb-17 15:00N 30°13' W 093°15'0 0.0
2018-Feb-17 14:30N 30°13' W 093°15'0 0.0
2018-Feb-17 13:59N 30°13' W 093°15'0 0.0
2018-Feb-17 13:31N 30°13' W 093°15'0 0.0
2018-Feb-17 13:00N 30°13' W 093°15'0 0.0
2018-Feb-17 12:29N 30°13' W 093°15'0 0.0
2018-Feb-17 11:59N 30°13' W 093°15'0 0.0
2018-Feb-17 11:30N 30°13' W 093°15'0 0.0
2018-Feb-17 11:00N 30°13' W 093°15'0 0.0
2018-Feb-17 10:27N 30°13' W 093°15'0 0.0
2018-Feb-17 10:01N 30°13' W 093°15'0 0.0
2018-Feb-17 09:31N 30°13' W 093°15'0 0.0
2018-Feb-17 09:00N 30°13' W 093°15'0 0.0
2018-Feb-17 08:30N 30°13' W 093°15'0 0.0
2018-Feb-17 08:01N 30°13' W 093°15'0 0.0
2018-Feb-17 07:30N 30°13' W 093°15'0 0.0
2018-Feb-17 07:00N 30°13' W 093°15'0 0.0
2018-Feb-17 06:30N 30°13' W 093°15'0 0.0
2018-Feb-17 05:57N 30°13' W 093°15'0 0.0
2018-Feb-17 05:30N 30°13' W 093°15'0 0.0
2018-Feb-17 04:59N 30°13' W 093°15'0 0.0
2018-Feb-17 04:30N 30°13' W 093°15'0 0.0
2018-Feb-17 04:00N 30°13' W 093°15'0 0.0
2018-Feb-17 03:29N 30°13' W 093°15'0 0.0
2018-Feb-17 02:58N 30°13' W 093°15'0 0.0
2018-Feb-17 02:31N 30°13' W 093°15'0 0.0
2018-Feb-17 02:00N 30°13' W 093°15'0 0.0
2018-Feb-17 01:28N 30°13' W 093°15'0 0.0
2018-Feb-17 01:00N 30°13' W 093°15'0 0.0
2018-Feb-17 00:30N 30°13' W 093°15'0 0.0
2018-Feb-17 00:00N 30°13' W 093°15'0 0.0
2018-Feb-16 23:23N 30°13' W 093°15'0 0.0
2018-Feb-16 23:00N 30°13' W 093°15'0 0.0
2018-Feb-16 22:29N 30°13' W 093°15'0 0.0
2018-Feb-16 21:59N 30°13' W 093°15'0 0.0
2018-Feb-16 21:30N 30°13' W 093°15'0 0.0
2018-Feb-16 21:00N 30°13' W 093°15'0 0.0
2018-Feb-16 20:31N 30°13' W 093°15'0 0.0
2018-Feb-16 20:01N 30°13' W 093°15'0 0.0
2018-Feb-16 19:28N 30°13' W 093°15'0 0.0
2018-Feb-16 19:00N 30°13' W 093°15'0 0.0
2018-Feb-16 18:30N 30°13' W 093°15'0 0.0
2018-Feb-16 18:01N 30°13' W 093°15'0 0.0
2018-Feb-16 17:25N 30°13' W 093°15'0 0.0
2018-Feb-16 16:57N 30°13' W 093°15'0 0.0
2018-Feb-16 16:30N 30°13' W 093°15'0 0.0
2018-Feb-16 15:58N 30°13' W 093°15'0 0.0
2018-Feb-16 15:31N 30°13' W 093°15'0 0.0
2018-Feb-16 15:01N 30°13' W 093°15'0 0.0
2018-Feb-16 14:31N 30°13' W 093°15'0 0.0
2018-Feb-16 14:01N 30°13' W 093°15'0 0.0
2018-Feb-16 13:31N 30°13' W 093°15'0 0.0
2018-Feb-16 13:00N 30°13' W 093°15'0 0.0
2018-Feb-16 12:31N 30°13' W 093°15'0 0.0
2018-Feb-16 11:59N 30°13' W 093°15'0 0.0
2018-Feb-16 11:30N 30°13' W 093°15'0 0.0
2018-Feb-16 11:00N 30°13' W 093°15'0 0.0
2018-Feb-16 10:30N 30°13' W 093°15'0 0.0
2018-Feb-16 10:00N 30°13' W 093°15'0 0.0
2018-Feb-16 09:30N 30°13' W 093°15'0 0.0
2018-Feb-16 09:00N 30°13' W 093°15'0 0.0
2018-Feb-16 08:30N 30°13' W 093°15'0 0.0
2018-Feb-16 08:00N 30°13' W 093°15'0 0.0
2018-Feb-16 07:31N 30°13' W 093°15'0 0.0
2018-Feb-16 06:59N 30°13' W 093°15'0 0.0
2018-Feb-16 06:25N 30°13' W 093°15'0 0.0
2018-Feb-16 06:00N 30°13' W 093°15'0 0.0
2018-Feb-16 05:30N 30°13' W 093°15'0 0.0
2018-Feb-16 05:00N 30°13' W 093°15'0 0.0
2018-Feb-16 04:30N 30°13' W 093°15'0 0.0
2018-Feb-16 04:01N 30°13' W 093°15'0 0.0
2018-Feb-16 03:29N 30°13' W 093°15'0 0.0
2018-Feb-16 03:00N 30°13' W 093°15'0 0.0
2018-Feb-16 02:30N 30°13' W 093°15'0 0.0
2018-Feb-16 02:00N 30°13' W 093°15'0 0.0
2018-Feb-16 01:31N 30°13' W 093°15'0 0.0
2018-Feb-16 01:00N 30°13' W 093°15'0 0.0
2018-Feb-16 00:28N 30°13' W 093°15'0 0.0
2018-Feb-16 00:00N 30°13' W 093°15'0 0.0
2018-Feb-15 23:23N 30°13' W 093°15'0 0.0
2018-Feb-15 23:00N 30°13' W 093°15'0 0.0
2018-Feb-15 22:29N 30°13' W 093°15'0 0.0
2018-Feb-15 22:00N 30°13' W 093°15'0 0.0
2018-Feb-15 21:30N 30°13' W 093°15'0 0.0
2018-Feb-15 21:00N 30°13' W 093°15'0 0.0
2018-Feb-15 20:30N 30°13' W 093°15'0 0.0
2018-Feb-15 20:00N 30°13' W 093°15'0 0.0
2018-Feb-15 19:29N 30°13' W 093°15'0 0.0
2018-Feb-15 19:00N 30°13' W 093°15'0 0.0
2018-Feb-15 18:30N 30°13' W 093°15'0 0.0
2018-Feb-15 17:59N 30°13' W 093°15'0 0.0
2018-Feb-15 17:30N 30°13' W 093°15'0 0.0
2018-Feb-15 17:00N 30°13' W 093°15'0 0.0
2018-Feb-15 16:31N 30°13' W 093°15'0 0.0
2018-Feb-15 16:00N 30°13' W 093°15'0 0.0
2018-Feb-15 15:30N 30°13' W 093°15'0 0.0
2018-Feb-15 15:01N 30°13' W 093°15'0 0.0
2018-Feb-15 14:31N 30°13' W 093°15'0 0.0
2018-Feb-15 14:01N 30°13' W 093°15'0 0.0
2018-Feb-15 13:30N 30°13' W 093°15'0 0.0
2018-Feb-15 13:00N 30°13' W 093°15'0 0.0
2018-Feb-15 12:30N 30°13' W 093°15'0 0.0
2018-Feb-15 12:00N 30°13' W 093°15'0 0.0
2018-Feb-15 11:31N 30°13' W 093°15'0 0.0
2018-Feb-15 11:00N 30°13' W 093°15'0 0.0
2018-Feb-15 10:30N 30°13' W 093°15'0 0.0
2018-Feb-15 09:58N 30°13' W 093°15'0 0.0
2018-Feb-15 09:30N 30°13' W 093°15'0 0.0
2018-Feb-15 09:00N 30°13' W 093°15'0 0.0
2018-Feb-15 08:31N 30°13' W 093°15'0 0.0
2018-Feb-15 08:00N 30°13' W 093°15'0 0.0
2018-Feb-15 07:31N 30°13' W 093°15'0 0.0
2018-Feb-15 07:00N 30°13' W 093°15'0 0.0
2018-Feb-15 06:30N 30°13' W 093°15'0 0.0
2018-Feb-15 06:00N 30°13' W 093°15'0 0.0
2018-Feb-15 05:30N 30°13' W 093°15'0 0.0
2018-Feb-15 05:00N 30°13' W 093°15'0 0.0
2018-Feb-15 04:30N 30°13' W 093°15'0 0.0
2018-Feb-15 04:00N 30°13' W 093°15'0 0.0
2018-Feb-15 03:31N 30°13' W 093°15'0 0.0
2018-Feb-15 02:57N 30°13' W 093°15'0 0.0
2018-Feb-15 02:22N 30°13' W 093°15'0 0.0
2018-Feb-15 02:00N 30°13' W 093°15'0 0.0
2018-Feb-15 01:30N 30°13' W 093°15'0 0.0
2018-Feb-15 01:00N 30°13' W 093°15'0 0.0
2018-Feb-15 00:30N 30°13' W 093°15'0 0.0
2018-Feb-15 00:00N 30°13' W 093°15'0 0.0
2018-Feb-14 23:30N 30°13' W 093°15'0 0.0
2018-Feb-14 23:00N 30°13' W 093°15'0 0.0
2018-Feb-14 22:30N 30°13' W 093°15'0 0.0
2018-Feb-14 22:00N 30°13' W 093°15'0 0.0
2018-Feb-14 21:30N 30°13' W 093°15'0 0.0
2018-Feb-14 21:00N 30°13' W 093°15'0 0.0
2018-Feb-14 20:30N 30°13' W 093°15'0 0.0
2018-Feb-14 20:00N 30°13' W 093°15'0 0.0
2018-Feb-14 19:30N 30°13' W 093°15'0 0.0
2018-Feb-14 19:00N 30°13' W 093°15'0 0.0
2018-Feb-14 18:25N 30°13' W 093°15'0 0.0
2018-Feb-14 18:00N 30°13' W 093°15'0 0.0
2018-Feb-14 17:30N 30°13' W 093°15'0 0.0
2018-Feb-14 16:58N 30°13' W 093°15'0 0.0
2018-Feb-14 16:30N 30°13' W 093°15'0 0.0
2018-Feb-14 16:00N 30°13' W 093°15'0 0.0
2018-Feb-14 15:30N 30°13' W 093°15'0 0.0
2018-Feb-14 15:00N 30°13' W 093°15'0 0.0
2018-Feb-14 14:30N 30°13' W 093°15'0 0.0
2018-Feb-14 14:00N 30°13' W 093°15'0 0.0
2018-Feb-14 13:31N 30°13' W 093°15'0 0.0
2018-Feb-14 13:00N 30°13' W 093°15'0 0.0
2018-Feb-14 12:30N 30°13' W 093°15'0 0.0
2018-Feb-14 12:01N 30°13' W 093°15'0 0.0
2018-Feb-14 11:30N 30°13' W 093°15'0 0.0
2018-Feb-14 11:00N 30°13' W 093°15'0 0.0
2018-Feb-14 10:31N 30°13' W 093°15'0 0.0
2018-Feb-14 10:00N 30°13' W 093°15'0 0.0
2018-Feb-14 09:29N 30°13' W 093°15'0 0.0
2018-Feb-14 09:00N 30°13' W 093°15'0 0.0
2018-Feb-14 08:31N 30°13' W 093°15'0 0.0
2018-Feb-14 08:00N 30°13' W 093°15'0 0.0
2018-Feb-14 07:30N 30°13' W 093°15'0 0.0
2018-Feb-14 07:00N 30°13' W 093°15'0 0.0
2018-Feb-14 06:30N 30°13' W 093°15'0 0.0
2018-Feb-14 06:00N 30°13' W 093°15'0 0.0
2018-Feb-14 05:30N 30°13' W 093°15'0 0.0
2018-Feb-14 05:00N 30°13' W 093°15'0 0.0
2018-Feb-14 04:31N 30°13' W 093°15'0 0.0
2018-Feb-14 04:01N 30°13' W 093°15'0 0.0
2018-Feb-14 03:30N 30°13' W 093°15'0 0.0
2018-Feb-14 03:01N 30°13' W 093°15'0 0.0
2018-Feb-14 02:30N 30°13' W 093°15'0 0.0
2018-Feb-14 01:59N 30°13' W 093°15'0 0.0
2018-Feb-14 01:30N 30°13' W 093°15'0 0.0
2018-Feb-14 01:01N 30°13' W 093°15'0 0.0
2018-Feb-14 00:24N 30°13' W 093°15'0 0.0
2018-Feb-14 00:00N 30°13' W 093°15'0 0.0
2018-Feb-13 23:28N 30°13' W 093°15'0 0.0
2018-Feb-13 23:00N 30°13' W 093°15'0 0.0
2018-Feb-13 22:30N 30°13' W 093°15'0 0.0
2018-Feb-13 22:00N 30°13' W 093°15'0 0.0
2018-Feb-13 21:30N 30°13' W 093°15'0 0.0
2018-Feb-13 21:00N 30°13' W 093°15'0 0.0
2018-Feb-13 20:30N 30°13' W 093°15'0 0.0
2018-Feb-13 20:00N 30°13' W 093°15'0 0.0
2018-Feb-13 19:30N 30°13' W 093°15'0 0.0
2018-Feb-13 18:59N 30°13' W 093°15'0 0.0
2018-Feb-13 18:27N 30°13' W 093°15'0 0.0
2018-Feb-13 17:59N 30°13' W 093°15'0 0.0
2018-Feb-13 17:30N 30°13' W 093°15'0 0.0
2018-Feb-13 16:59N 30°13' W 093°15'0 0.0
2018-Feb-13 16:26N 30°13' W 093°15'0 0.0
2018-Feb-13 15:58N 30°13' W 093°15'0 0.0
2018-Feb-13 15:31N 30°13' W 093°15'0 0.0
2018-Feb-13 15:00N 30°13' W 093°15'0 0.0
2018-Feb-13 14:30N 30°13' W 093°15'0 0.0
2018-Feb-13 14:01N 30°13' W 093°15'0 0.0
2018-Feb-13 13:30N 30°13' W 093°15'0 0.0
2018-Feb-13 13:00N 30°13' W 093°15'0 0.0
2018-Feb-13 12:30N 30°13' W 093°15'0 0.0
2018-Feb-13 11:56N 30°13' W 093°15'0 0.0
2018-Feb-13 11:27N 30°13' W 093°15'0 0.0
2018-Feb-13 11:00N 30°13' W 093°15'0 0.0
2018-Feb-13 10:30N 30°13' W 093°15'0 0.0
2018-Feb-13 10:00N 30°13' W 093°15'0 0.0
2018-Feb-13 09:24N 30°13' W 093°15'0 0.0
2018-Feb-13 08:59N 30°13' W 093°15'0 0.0
2018-Feb-13 08:30N 30°13' W 093°15'0 0.0
2018-Feb-13 07:58N 30°13' W 093°15'0 0.0
2018-Feb-13 07:28N 30°13' W 093°15'0 0.0
2018-Feb-13 06:57N 30°13' W 093°15'0 0.0
2018-Feb-13 06:30N 30°13' W 093°15'0 0.0
2018-Feb-13 06:00N 30°13' W 093°15'0 0.0
2018-Feb-13 05:28N 30°13' W 093°15'0 0.0
2018-Feb-13 05:00N 30°13' W 093°15'0 0.0
2018-Feb-13 04:27N 30°13' W 093°15'0 0.0
2018-Feb-13 04:00N 30°13' W 093°15'0 0.0
2018-Feb-13 03:30N 30°13' W 093°15'0 0.0
2018-Feb-13 03:00N 30°13' W 093°15'0 0.0
2018-Feb-13 02:30N 30°13' W 093°15'0 0.0
2018-Feb-13 02:00N 30°13' W 093°15'0 0.0
2018-Feb-13 01:30N 30°13' W 093°15'0 0.0
2018-Feb-13 00:54N 30°13' W 093°15'0 0.0
2018-Feb-13 00:29N 30°13' W 093°15'0 0.0
2018-Feb-13 00:00N 30°13' W 093°15'0 0.0
2018-Feb-12 23:28N 30°13' W 093°15'0 0.0
2018-Feb-12 23:00N 30°13' W 093°15'0 0.0
2018-Feb-12 22:30N 30°13' W 093°15'0 0.0
2018-Feb-12 22:00N 30°13' W 093°15'0 0.0
2018-Feb-12 21:28N 30°13' W 093°15'0 0.0
2018-Feb-12 20:54N 30°13' W 093°15'0 0.0
2018-Feb-12 20:27N 30°13' W 093°15'0 0.0
2018-Feb-12 20:00N 30°13' W 093°15'0 0.0
2018-Feb-12 19:25N 30°13' W 093°15'0 0.0
2018-Feb-12 19:00N 30°13' W 093°15'0 0.0
2018-Feb-12 18:30N 30°13' W 093°15'0 0.0
2018-Feb-12 17:57N 30°13' W 093°15'0 0.0
2018-Feb-12 17:27N 30°13' W 093°15'0 0.0
2018-Feb-12 17:00N 30°13' W 093°15'0 0.0
2018-Feb-12 16:28N 30°13' W 093°15'0 0.0
2018-Feb-12 16:00N 30°13' W 093°15'0 0.0
2018-Feb-12 15:15N 30°13' W 093°15'0 0.0
2018-Feb-12 14:59N 30°13' W 093°15'0 0.0
2018-Feb-12 14:29N 30°13' W 093°15'0 0.0
2018-Feb-12 14:00N 30°13' W 093°15'0 0.0
2018-Feb-12 13:30N 30°13' W 093°15'0 0.0
2018-Feb-12 13:00N 30°13' W 093°15'0 0.0
2018-Feb-12 12:28N 30°13' W 093°15'0 0.0
2018-Feb-12 11:58N 30°13' W 093°15'0 0.0
2018-Feb-12 11:27N 30°13' W 093°15'0 0.0
2018-Feb-12 10:59N 30°13' W 093°15'0 0.0
2018-Feb-12 10:30N 30°13' W 093°15'0 0.0
2018-Feb-12 09:55N 30°13' W 093°15'0 0.0
2018-Feb-12 09:25N 30°13' W 093°15'0 0.0
2018-Feb-12 09:00N 30°13' W 093°15'0 0.0
2018-Feb-12 08:28N 30°13' W 093°15'0 0.0
2018-Feb-12 08:00N 30°13' W 093°15'0 0.0
2018-Feb-12 07:30N 30°13' W 093°15'0 0.0
2018-Feb-12 06:58N 30°13' W 093°15'0 0.0
2018-Feb-12 06:30N 30°13' W 093°15'0 0.0
2018-Feb-12 05:51N 30°13' W 093°15'0 0.0
2018-Feb-12 05:28N 30°13' W 093°15'0 0.0
2018-Feb-12 04:56N 30°13' W 093°15'0 0.0
2018-Feb-12 04:26N 30°13' W 093°15'0 0.0
2018-Feb-12 03:54N 30°13' W 093°15'0 0.0
2018-Feb-12 03:30N 30°13' W 093°15'0 0.0
2018-Feb-12 02:59N 30°13' W 093°15'0 0.0
2018-Feb-12 02:29N 30°13' W 093°15'0 0.0
2018-Feb-12 02:00N 30°13' W 093°15'0 0.0
2018-Feb-12 01:30N 30°13' W 093°15'0 0.0
2018-Feb-12 01:00N 30°13' W 093°15'0 0.0
2018-Feb-12 00:30N 30°13' W 093°15'0 0.0
2018-Feb-12 00:00N 30°13' W 093°15'1 2.8
2018-Feb-11 23:30N 30°12' W 093°17'2 4.3
2018-Feb-11 23:00N 30°11' W 093°19'0 0.0
2018-Feb-11 22:30N 30°11' W 093°19'1 2.2
2018-Feb-11 22:00N 30°10' W 093°19'2 3.9
2018-Feb-11 21:29N 30°08' W 093°20'0 0.1
2018-Feb-11 20:55N 30°08' W 093°20'0 0.9
2018-Feb-11 20:30N 30°08' W 093°20'4 7.7
2018-Feb-11 20:00N 30°12' W 093°18'2 3.6
2018-Feb-11 19:21N 30°13' W 093°15'0 0.0
2018-Feb-11 19:00N 30°13' W 093°15'0 0.0
2018-Feb-11 18:30N 30°13' W 093°15'0 0.0
2018-Feb-11 17:56N 30°13' W 093°15'0 0.0
2018-Feb-11 17:30N 30°13' W 093°15'0 0.0
2018-Feb-11 16:58N 30°13' W 093°15'0 0.0
2018-Feb-11 16:25N 30°13' W 093°15'0 0.0
2018-Feb-11 16:00N 30°13' W 093°15'0 0.0
2018-Feb-11 15:29N 30°13' W 093°15'0 0.0
2018-Feb-11 15:00N 30°13' W 093°15'0 0.0
2018-Feb-11 14:30N 30°13' W 093°15'0 0.0
2018-Feb-11 14:00N 30°13' W 093°15'0 0.0
2018-Feb-11 13:30N 30°13' W 093°15'0 0.0
2018-Feb-11 13:00N 30°13' W 093°15'0 0.0
2018-Feb-11 12:14N 30°13' W 093°15'0 0.0
2018-Feb-11 11:56N 30°13' W 093°15'0 0.0
2018-Feb-11 11:28N 30°13' W 093°15'0 0.0
2018-Feb-11 11:00N 30°13' W 093°15'0 0.0
2018-Feb-11 10:30N 30°13' W 093°15'0 0.0
2018-Feb-11 10:00N 30°13' W 093°15'0 0.0
2018-Feb-11 09:30N 30°13' W 093°15'0 0.0
2018-Feb-11 08:48N 30°13' W 093°15'0 0.0
2018-Feb-11 08:30N 30°13' W 093°15'0 0.0
2018-Feb-11 07:59N 30°13' W 093°15'0 0.0
2018-Feb-11 07:28N 30°13' W 093°15'0 0.0
2018-Feb-11 06:59N 30°13' W 093°15'0 0.0
2018-Feb-11 06:23N 30°13' W 093°15'0 0.0
2018-Feb-11 06:00N 30°13' W 093°15'0 0.0
2018-Feb-11 05:30N 30°13' W 093°15'0 0.0
2018-Feb-11 04:57N 30°13' W 093°15'0 0.0
2018-Feb-11 04:30N 30°13' W 093°15'0 0.0
2018-Feb-11 04:00N 30°13' W 093°15'0 0.0
2018-Feb-11 03:30N 30°13' W 093°15'0 0.0
2018-Feb-11 03:00N 30°13' W 093°15'0 0.0
2018-Feb-11 02:20N 30°13' W 093°15'0 0.0
2018-Feb-11 01:58N 30°13' W 093°15'0 0.0
2018-Feb-11 01:26N 30°13' W 093°15'0 0.0
2018-Feb-11 01:00N 30°13' W 093°15'0 0.0
2018-Feb-11 00:28N 30°13' W 093°15'0 0.0
2018-Feb-11 00:00N 30°13' W 093°15'0 0.0
2018-Feb-10 23:29N 30°13' W 093°15'0 0.0
2018-Feb-10 22:59N 30°13' W 093°15'0 0.0
2018-Feb-10 22:26N 30°13' W 093°15'0 0.0
2018-Feb-10 22:00N 30°13' W 093°15'0 0.0
2018-Feb-10 21:21N 30°13' W 093°15'0 0.0
2018-Feb-10 21:00N 30°13' W 093°15'0 0.0
2018-Feb-10 20:30N 30°13' W 093°15'0 0.0
2018-Feb-10 20:00N 30°13' W 093°15'0 0.0
2018-Feb-10 19:30N 30°13' W 093°15'0 0.0
2018-Feb-10 18:59N 30°13' W 093°15'0 0.0
2018-Feb-10 18:30N 30°13' W 093°15'0 0.0
2018-Feb-10 17:59N 30°13' W 093°15'0 0.0
2018-Feb-10 17:27N 30°13' W 093°15'0 0.0
2018-Feb-10 16:44N 30°13' W 093°15'0 0.0
2018-Feb-10 16:25N 30°13' W 093°15'0 0.0
2018-Feb-10 16:00N 30°13' W 093°15'0 0.0
2018-Feb-10 15:29N 30°13' W 093°15'0 0.0
2018-Feb-10 14:57N 30°13' W 093°15'0 0.0
2018-Feb-10 14:30N 30°13' W 093°15'0 0.0
2018-Feb-10 14:00N 30°13' W 093°15'0 0.0
2018-Feb-10 13:30N 30°13' W 093°15'0 0.0
2018-Feb-10 13:00N 30°13' W 093°15'0 0.0
2018-Feb-10 12:30N 30°13' W 093°15'0 0.0
2018-Feb-10 12:00N 30°13' W 093°15'0 0.0
2018-Feb-10 11:27N 30°13' W 093°15'0 0.0
2018-Feb-10 10:55N 30°13' W 093°15'0 0.0
2018-Feb-10 10:30N 30°13' W 093°15'0 0.0
2018-Feb-10 09:48N 30°13' W 093°15'0 0.0
2018-Feb-10 09:28N 30°13' W 093°15'0 0.0
2018-Feb-10 08:57N 30°13' W 093°15'0 0.0
2018-Feb-10 08:30N 30°13' W 093°15'0 0.0
2018-Feb-10 08:00N 30°13' W 093°15'0 0.0
2018-Feb-10 07:30N 30°13' W 093°15'0 0.0
2018-Feb-10 06:58N 30°13' W 093°15'0 0.0
2018-Feb-10 06:30N 30°13' W 093°15'0 0.0
2018-Feb-10 06:00N 30°13' W 093°15'0 0.0
2018-Feb-10 05:29N 30°13' W 093°15'0 0.0
2018-Feb-10 05:00N 30°13' W 093°15'0 0.0
2018-Feb-10 04:25N 30°13' W 093°15'1 1.6
2018-Feb-10 04:00N 30°13' W 093°16'3 5.7
2018-Feb-10 03:30N 30°11' W 093°18'1 2.4
2018-Feb-10 03:00N 30°10' W 093°19'2 3.8
2018-Feb-10 02:30N 30°08' W 093°20'2 3.4
2018-Feb-10 02:00N 30°10' W 093°19'4 7.7
2018-Feb-10 01:30N 30°12' W 093°16'  
Track history (hours):
 
Tides and Currents Weather Stations Pressure Air Temp Water Temp Dewpoint Dewpoint Depression Visibility Wind Speed Wind Dir Waves Ship Positions

Goliath

Owner: Seabulk Towing Services,Inc., Groves, TX. More information available from US FCC via Universal Licensing System and Coast Guard Vessel Documentation Center.

Last reported at 2018-Feb-18 05:30 UTC. Time now 2018-Feb-18 05:34 UTC.
Position N 30°06' W 093°17'.

Length 32 m; draft 14.8 m.

Type: Tug. MMSI: 366268061.

Date/timePositionNaut miles runAvg speedWind from/ knotsBaromVisibWave heightAir tempDewpointWater temp
2018-Feb-18 05:30N 30°06' W 093°17'0 0.0
2018-Feb-18 05:00N 30°06' W 093°17'0 0.0
2018-Feb-18 04:30N 30°06' W 093°17'0 0.0
2018-Feb-18 04:00N 30°06' W 093°17'0 0.0
2018-Feb-18 03:30N 30°06' W 093°17'0 0.0
2018-Feb-18 03:00N 30°06' W 093°17'0 0.0
2018-Feb-18 02:30N 30°06' W 093°17'0 0.0
2018-Feb-18 01:59N 30°06' W 093°17'0 0.4
2018-Feb-18 01:30N 30°07' W 093°18'2 4.2
2018-Feb-18 01:00N 30°07' W 093°20'3 6.8
2018-Feb-18 00:30N 30°10' W 093°19'1 1.2
2018-Feb-18 00:00N 30°11' W 093°19'0 0.0
2018-Feb-17 23:30N 30°11' W 093°19'0 0.0
2018-Feb-17 23:01N 30°11' W 093°19'4 8.1
2018-Feb-17 22:30N 30°13' W 093°15'1 1.1
2018-Feb-17 22:01N 30°13' W 093°16'1 2.5
2018-Feb-17 21:30N 30°13' W 093°17'0 0.0
2018-Feb-17 20:59N 30°13' W 093°17'2 3.8
2018-Feb-17 20:30N 30°12' W 093°17'1 1.1
2018-Feb-17 20:00N 30°11' W 093°18'0 0.6
2018-Feb-17 19:30N 30°12' W 093°18'3 4.8
2018-Feb-17 18:59N 30°13' W 093°15'0 0.0
2018-Feb-17 18:30N 30°13' W 093°15'0 0.0
2018-Feb-17 18:01N 30°13' W 093°15'0 0.0
2018-Feb-17 17:31N 30°13' W 093°15'0 0.0
2018-Feb-17 17:00N 30°13' W 093°15'0 0.0
2018-Feb-17 16:26N 30°13' W 093°15'0 0.0
2018-Feb-17 15:56N 30°13' W 093°15'0 0.0
2018-Feb-17 15:30N 30°13' W 093°15'0 0.0
2018-Feb-17 15:00N 30°13' W 093°15'0 0.0
2018-Feb-17 14:30N 30°13' W 093°15'0 0.0
2018-Feb-17 13:59N 30°13' W 093°15'0 0.0
2018-Feb-17 13:31N 30°13' W 093°15'0 0.0
2018-Feb-17 13:00N 30°13' W 093°15'0 0.0
2018-Feb-17 12:29N 30°13' W 093°15'0 0.0
2018-Feb-17 11:59N 30°13' W 093°15'0 0.0
2018-Feb-17 11:30N 30°13' W 093°15'0 0.0
2018-Feb-17 11:00N 30°13' W 093°15'0 0.0
2018-Feb-17 10:27N 30°13' W 093°15'0 0.0
2018-Feb-17 10:01N 30°13' W 093°15'0 0.0
2018-Feb-17 09:31N 30°13' W 093°15'0 0.0
2018-Feb-17 09:00N 30°13' W 093°15'0 0.0
2018-Feb-17 08:30N 30°13' W 093°15'0 0.0
2018-Feb-17 08:01N 30°13' W 093°15'0 0.0
2018-Feb-17 07:30N 30°13' W 093°15'0 0.0
2018-Feb-17 07:00N 30°13' W 093°15'0 0.0
2018-Feb-17 06:30N 30°13' W 093°15'0 0.0
2018-Feb-17 05:57N 30°13' W 093°15'0 0.0
2018-Feb-17 05:30N 30°13' W 093°15'0 0.0
2018-Feb-17 04:59N 30°13' W 093°15'0 0.0
2018-Feb-17 04:30N 30°13' W 093°15'0 0.0
2018-Feb-17 04:00N 30°13' W 093°15'0 0.0
2018-Feb-17 03:29N 30°13' W 093°15'0 0.0
2018-Feb-17 02:58N 30°13' W 093°15'0 0.0
2018-Feb-17 02:31N 30°13' W 093°15'0 0.0
2018-Feb-17 02:00N 30°13' W 093°15'0 0.0
2018-Feb-17 01:28N 30°13' W 093°15'0 0.0
2018-Feb-17 01:00N 30°13' W 093°15'0 0.0
2018-Feb-17 00:30N 30°13' W 093°15'0 0.0
2018-Feb-17 00:00N 30°13' W 093°15'0 0.0
2018-Feb-16 23:23N 30°13' W 093°15'0 0.0
2018-Feb-16 23:00N 30°13' W 093°15'0 0.0
2018-Feb-16 22:29N 30°13' W 093°15'0 0.0
2018-Feb-16 21:59N 30°13' W 093°15'0 0.0
2018-Feb-16 21:30N 30°13' W 093°15'0 0.0
2018-Feb-16 21:00N 30°13' W 093°15'0 0.0
2018-Feb-16 20:31N 30°13' W 093°15'0 0.0
2018-Feb-16 20:01N 30°13' W 093°15'0 0.0
2018-Feb-16 19:28N 30°13' W 093°15'0 0.0
2018-Feb-16 19:00N 30°13' W 093°15'0 0.0
2018-Feb-16 18:30N 30°13' W 093°15'0 0.0
2018-Feb-16 18:01N 30°13' W 093°15'0 0.0
2018-Feb-16 17:25N 30°13' W 093°15'0 0.0
2018-Feb-16 16:57N 30°13' W 093°15'0 0.0
2018-Feb-16 16:30N 30°13' W 093°15'0 0.0
2018-Feb-16 15:58N 30°13' W 093°15'0 0.0
2018-Feb-16 15:31N 30°13' W 093°15'0 0.0
2018-Feb-16 15:01N 30°13' W 093°15'0 0.0
2018-Feb-16 14:31N 30°13' W 093°15'0 0.0
2018-Feb-16 14:01N 30°13' W 093°15'0 0.0
2018-Feb-16 13:31N 30°13' W 093°15'0 0.0
2018-Feb-16 13:00N 30°13' W 093°15'0 0.0
2018-Feb-16 12:31N 30°13' W 093°15'0 0.0
2018-Feb-16 11:59N 30°13' W 093°15'0 0.0
2018-Feb-16 11:30N 30°13' W 093°15'0 0.0
2018-Feb-16 11:00N 30°13' W 093°15'0 0.0
2018-Feb-16 10:30N 30°13' W 093°15'0 0.0
2018-Feb-16 10:00N 30°13' W 093°15'0 0.0
2018-Feb-16 09:30N 30°13' W 093°15'0 0.0
2018-Feb-16 09:00N 30°13' W 093°15'0 0.0
2018-Feb-16 08:30N 30°13' W 093°15'0 0.0
2018-Feb-16 08:00N 30°13' W 093°15'0 0.0
2018-Feb-16 07:31N 30°13' W 093°15'0 0.0
2018-Feb-16 06:59N 30°13' W 093°15'0 0.0
2018-Feb-16 06:25N 30°13' W 093°15'0 0.0
2018-Feb-16 06:00N 30°13' W 093°15'0 0.0
2018-Feb-16 05:30N 30°13' W 093°15'0 0.0
2018-Feb-16 05:00N 30°13' W 093°15'0 0.0
2018-Feb-16 04:30N 30°13' W 093°15'0 0.0
2018-Feb-16 04:01N 30°13' W 093°15'0 0.0
2018-Feb-16 03:29N 30°13' W 093°15'0 0.0
2018-Feb-16 03:00N 30°13' W 093°15'0 0.0
2018-Feb-16 02:30N 30°13' W 093°15'0 0.0
2018-Feb-16 02:00N 30°13' W 093°15'0 0.0
2018-Feb-16 01:31N 30°13' W 093°15'0 0.0
2018-Feb-16 01:00N 30°13' W 093°15'0 0.0
2018-Feb-16 00:28N 30°13' W 093°15'0 0.0
2018-Feb-16 00:00N 30°13' W 093°15'0 0.0
2018-Feb-15 23:23N 30°13' W 093°15'0 0.0
2018-Feb-15 23:00N 30°13' W 093°15'0 0.0
2018-Feb-15 22:29N 30°13' W 093°15'0 0.0
2018-Feb-15 22:00N 30°13' W 093°15'0 0.0
2018-Feb-15 21:30N 30°13' W 093°15'0 0.0
2018-Feb-15 21:00N 30°13' W 093°15'0 0.0
2018-Feb-15 20:30N 30°13' W 093°15'0 0.0
2018-Feb-15 20:00N 30°13' W 093°15'0 0.0
2018-Feb-15 19:29N 30°13' W 093°15'0 0.0
2018-Feb-15 19:00N 30°13' W 093°15'0 0.0
2018-Feb-15 18:30N 30°13' W 093°15'0 0.0
2018-Feb-15 17:59N 30°13' W 093°15'0 0.0
2018-Feb-15 17:30N 30°13' W 093°15'0 0.0
2018-Feb-15 17:00N 30°13' W 093°15'0 0.0
2018-Feb-15 16:31N 30°13' W 093°15'0 0.0
2018-Feb-15 16:00N 30°13' W 093°15'0 0.0
2018-Feb-15 15:30N 30°13' W 093°15'0 0.0
2018-Feb-15 15:01N 30°13' W 093°15'0 0.0
2018-Feb-15 14:31N 30°13' W 093°15'0 0.0
2018-Feb-15 14:01N 30°13' W 093°15'0 0.0
2018-Feb-15 13:30N 30°13' W 093°15'0 0.0
2018-Feb-15 13:00N 30°13' W 093°15'0 0.0
2018-Feb-15 12:30N 30°13' W 093°15'0 0.0
2018-Feb-15 12:00N 30°13' W 093°15'0 0.0
2018-Feb-15 11:31N 30°13' W 093°15'0 0.0
2018-Feb-15 11:00N 30°13' W 093°15'0 0.0
2018-Feb-15 10:30N 30°13' W 093°15'0 0.0
2018-Feb-15 09:58N 30°13' W 093°15'0 0.0
2018-Feb-15 09:30N 30°13' W 093°15'0 0.0
2018-Feb-15 09:00N 30°13' W 093°15'0 0.0
2018-Feb-15 08:31N 30°13' W 093°15'0 0.0
2018-Feb-15 08:00N 30°13' W 093°15'0 0.0
2018-Feb-15 07:31N 30°13' W 093°15'0 0.0
2018-Feb-15 07:00N 30°13' W 093°15'0 0.0
2018-Feb-15 06:30N 30°13' W 093°15'0 0.0
2018-Feb-15 06:00N 30°13' W 093°15'0 0.0
2018-Feb-15 05:30N 30°13' W 093°15'0 0.0
2018-Feb-15 05:00N 30°13' W 093°15'0 0.0
2018-Feb-15 04:30N 30°13' W 093°15'0 0.0
2018-Feb-15 04:00N 30°13' W 093°15'0 0.0
2018-Feb-15 03:31N 30°13' W 093°15'0 0.0
2018-Feb-15 02:57N 30°13' W 093°15'0 0.0
2018-Feb-15 02:22N 30°13' W 093°15'0 0.0
2018-Feb-15 02:00N 30°13' W 093°15'0 0.0
2018-Feb-15 01:30N 30°13' W 093°15'0 0.0
2018-Feb-15 01:00N 30°13' W 093°15'0 0.0
2018-Feb-15 00:30N 30°13' W 093°15'0 0.0
2018-Feb-15 00:00N 30°13' W 093°15'0 0.0
2018-Feb-14 23:30N 30°13' W 093°15'0 0.0
2018-Feb-14 23:00N 30°13' W 093°15'0 0.0
2018-Feb-14 22:30N 30°13' W 093°15'0 0.0
2018-Feb-14 22:00N 30°13' W 093°15'0 0.0
2018-Feb-14 21:30N 30°13' W 093°15'0 0.0
2018-Feb-14 21:00N 30°13' W 093°15'0 0.0
2018-Feb-14 20:30N 30°13' W 093°15'0 0.0
2018-Feb-14 20:00N 30°13' W 093°15'0 0.0
2018-Feb-14 19:30N 30°13' W 093°15'0 0.0
2018-Feb-14 19:00N 30°13' W 093°15'0 0.0
2018-Feb-14 18:25N 30°13' W 093°15'0 0.0
2018-Feb-14 18:00N 30°13' W 093°15'0 0.0
2018-Feb-14 17:30N 30°13' W 093°15'0 0.0
2018-Feb-14 16:58N 30°13' W 093°15'0 0.0
2018-Feb-14 16:30N 30°13' W 093°15'0 0.0
2018-Feb-14 16:00N 30°13' W 093°15'0 0.0
2018-Feb-14 15:30N 30°13' W 093°15'0 0.0
2018-Feb-14 15:00N 30°13' W 093°15'0 0.0
2018-Feb-14 14:30N 30°13' W 093°15'0 0.0
2018-Feb-14 14:00N 30°13' W 093°15'0 0.0
2018-Feb-14 13:31N 30°13' W 093°15'0 0.0
2018-Feb-14 13:00N 30°13' W 093°15'0 0.0
2018-Feb-14 12:30N 30°13' W 093°15'0 0.0
2018-Feb-14 12:01N 30°13' W 093°15'0 0.0
2018-Feb-14 11:30N 30°13' W 093°15'0 0.0
2018-Feb-14 11:00N 30°13' W 093°15'0 0.0
2018-Feb-14 10:31N 30°13' W 093°15'0 0.0
2018-Feb-14 10:00N 30°13' W 093°15'0 0.0
2018-Feb-14 09:29N 30°13' W 093°15'0 0.0
2018-Feb-14 09:00N 30°13' W 093°15'0 0.0
2018-Feb-14 08:31N 30°13' W 093°15'0 0.0
2018-Feb-14 08:00N 30°13' W 093°15'0 0.0
2018-Feb-14 07:30N 30°13' W 093°15'0 0.0
2018-Feb-14 07:00N 30°13' W 093°15'0 0.0
2018-Feb-14 06:30N 30°13' W 093°15'0 0.0
2018-Feb-14 06:00N 30°13' W 093°15'0 0.0
2018-Feb-14 05:30N 30°13' W 093°15'0 0.0
2018-Feb-14 05:00N 30°13' W 093°15'0 0.0
2018-Feb-14 04:31N 30°13' W 093°15'0 0.0
2018-Feb-14 04:01N 30°13' W 093°15'0 0.0
2018-Feb-14 03:30N 30°13' W 093°15'0 0.0
2018-Feb-14 03:01N 30°13' W 093°15'0 0.0
2018-Feb-14 02:30N 30°13' W 093°15'0 0.0
2018-Feb-14 01:59N 30°13' W 093°15'0 0.0
2018-Feb-14 01:30N 30°13' W 093°15'0 0.0
2018-Feb-14 01:01N 30°13' W 093°15'0 0.0
2018-Feb-14 00:24N 30°13' W 093°15'0 0.0
2018-Feb-14 00:00N 30°13' W 093°15'0 0.0
2018-Feb-13 23:28N 30°13' W 093°15'0 0.0
2018-Feb-13 23:00N 30°13' W 093°15'0 0.0
2018-Feb-13 22:30N 30°13' W 093°15'0 0.0
2018-Feb-13 22:00N 30°13' W 093°15'0 0.0
2018-Feb-13 21:30N 30°13' W 093°15'0 0.0
2018-Feb-13 21:00N 30°13' W 093°15'0 0.0
2018-Feb-13 20:30N 30°13' W 093°15'0 0.0
2018-Feb-13 20:00N 30°13' W 093°15'0 0.0
2018-Feb-13 19:30N 30°13' W 093°15'0 0.0
2018-Feb-13 18:59N 30°13' W 093°15'0 0.0
2018-Feb-13 18:27N 30°13' W 093°15'0 0.0
2018-Feb-13 17:59N 30°13' W 093°15'0 0.0
2018-Feb-13 17:30N 30°13' W 093°15'0 0.0
2018-Feb-13 16:59N 30°13' W 093°15'0 0.0
2018-Feb-13 16:26N 30°13' W 093°15'0 0.0
2018-Feb-13 15:58N 30°13' W 093°15'0 0.0
2018-Feb-13 15:31N 30°13' W 093°15'0 0.0
2018-Feb-13 15:00N 30°13' W 093°15'0 0.0
2018-Feb-13 14:30N 30°13' W 093°15'0 0.0
2018-Feb-13 14:01N 30°13' W 093°15'0 0.0
2018-Feb-13 13:30N 30°13' W 093°15'0 0.0
2018-Feb-13 13:00N 30°13' W 093°15'0 0.0
2018-Feb-13 12:30N 30°13' W 093°15'0 0.0
2018-Feb-13 11:56N 30°13' W 093°15'0 0.0
2018-Feb-13 11:27N 30°13' W 093°15'0 0.0
2018-Feb-13 11:00N 30°13' W 093°15'0 0.0
2018-Feb-13 10:30N 30°13' W 093°15'0 0.0
2018-Feb-13 10:00N 30°13' W 093°15'0 0.0
2018-Feb-13 09:24N 30°13' W 093°15'0 0.0
2018-Feb-13 08:59N 30°13' W 093°15'0 0.0
2018-Feb-13 08:30N 30°13' W 093°15'0 0.0
2018-Feb-13 07:58N 30°13' W 093°15'0 0.0
2018-Feb-13 07:28N 30°13' W 093°15'0 0.0
2018-Feb-13 06:57N 30°13' W 093°15'0 0.0
2018-Feb-13 06:30N 30°13' W 093°15'0 0.0
2018-Feb-13 06:00N 30°13' W 093°15'0 0.0
2018-Feb-13 05:28N 30°13' W 093°15'0 0.0
2018-Feb-13 05:00N 30°13' W 093°15'0 0.0
2018-Feb-13 04:27N 30°13' W 093°15'0 0.0
2018-Feb-13 04:00N 30°13' W 093°15'0 0.0
2018-Feb-13 03:30N 30°13' W 093°15'0 0.0
2018-Feb-13 03:00N 30°13' W 093°15'0 0.0
2018-Feb-13 02:30N 30°13' W 093°15'0 0.0
2018-Feb-13 02:00N 30°13' W 093°15'0 0.0
2018-Feb-13 01:30N 30°13' W 093°15'0 0.0
2018-Feb-13 00:54N 30°13' W 093°15'0 0.0
2018-Feb-13 00:29N 30°13' W 093°15'0 0.0
2018-Feb-13 00:00N 30°13' W 093°15'0 0.0
2018-Feb-12 23:28N 30°13' W 093°15'0 0.0
2018-Feb-12 23:00N 30°13' W 093°15'0 0.0
2018-Feb-12 22:30N 30°13' W 093°15'0 0.0
2018-Feb-12 22:00N 30°13' W 093°15'0 0.0
2018-Feb-12 21:28N 30°13' W 093°15'0 0.0
2018-Feb-12 20:54N 30°13' W 093°15'0 0.0
2018-Feb-12 20:27N 30°13' W 093°15'0 0.0
2018-Feb-12 20:00N 30°13' W 093°15'0 0.0
2018-Feb-12 19:25N 30°13' W 093°15'0 0.0
2018-Feb-12 19:00N 30°13' W 093°15'0 0.0
2018-Feb-12 18:30N 30°13' W 093°15'0 0.0
2018-Feb-12 17:57N 30°13' W 093°15'0 0.0
2018-Feb-12 17:27N 30°13' W 093°15'0 0.0
2018-Feb-12 17:00N 30°13' W 093°15'0 0.0
2018-Feb-12 16:28N 30°13' W 093°15'0 0.0
2018-Feb-12 16:00N 30°13' W 093°15'0 0.0
2018-Feb-12 15:15N 30°13' W 093°15'0 0.0
2018-Feb-12 14:59N 30°13' W 093°15'0 0.0
2018-Feb-12 14:29N 30°13' W 093°15'0 0.0
2018-Feb-12 14:00N 30°13' W 093°15'0 0.0
2018-Feb-12 13:30N 30°13' W 093°15'0 0.0
2018-Feb-12 13:00N 30°13' W 093°15'0 0.0
2018-Feb-12 12:28N 30°13' W 093°15'0 0.0
2018-Feb-12 11:58N 30°13' W 093°15'0 0.0
2018-Feb-12 11:27N 30°13' W 093°15'0 0.0
2018-Feb-12 10:59N 30°13' W 093°15'0 0.0
2018-Feb-12 10:30N 30°13' W 093°15'0 0.0
2018-Feb-12 09:55N 30°13' W 093°15'0 0.0
2018-Feb-12 09:25N 30°13' W 093°15'0 0.0
2018-Feb-12 09:00N 30°13' W 093°15'0 0.0
2018-Feb-12 08:28N 30°13' W 093°15'0 0.0
2018-Feb-12 08:00N 30°13' W 093°15'0 0.0
2018-Feb-12 07:30N 30°13' W 093°15'0 0.0
2018-Feb-12 06:58N 30°13' W 093°15'0 0.0
2018-Feb-12 06:30N 30°13' W 093°15'0 0.0
2018-Feb-12 05:51N 30°13' W 093°15'0 0.0
2018-Feb-12 05:28N 30°13' W 093°15'0 0.0
2018-Feb-12 04:56N 30°13' W 093°15'0 0.0
2018-Feb-12 04:26N 30°13' W 093°15'0 0.0
2018-Feb-12 03:54N 30°13' W 093°15'0 0.0
2018-Feb-12 03:30N 30°13' W 093°15'0 0.0
2018-Feb-12 02:59N 30°13' W 093°15'0 0.0
2018-Feb-12 02:29N 30°13' W 093°15'0 0.0
2018-Feb-12 02:00N 30°13' W 093°15'0 0.0
2018-Feb-12 01:30N 30°13' W 093°15'0 0.0
2018-Feb-12 01:00N 30°13' W 093°15'0 0.0
2018-Feb-12 00:30N 30°13' W 093°15'0 0.0
2018-Feb-12 00:00N 30°13' W 093°15'1 2.8
2018-Feb-11 23:30N 30°12' W 093°17'2 4.3
2018-Feb-11 23:00N 30°11' W 093°19'0 0.0
2018-Feb-11 22:30N 30°11' W 093°19'1 2.2
2018-Feb-11 22:00N 30°10' W 093°19'2 3.9
2018-Feb-11 21:29N 30°08' W 093°20'0 0.1
2018-Feb-11 20:55N 30°08' W 093°20'0 0.9
2018-Feb-11 20:30N 30°08' W 093°20'4 7.7
2018-Feb-11 20:00N 30°12' W 093°18'2 3.6
2018-Feb-11 19:21N 30°13' W 093°15'0 0.0
2018-Feb-11 19:00N 30°13' W 093°15'0 0.0
2018-Feb-11 18:30N 30°13' W 093°15'0 0.0
2018-Feb-11 17:56N 30°13' W 093°15'0 0.0
2018-Feb-11 17:30N 30°13' W 093°15'0 0.0
2018-Feb-11 16:58N 30°13' W 093°15'0 0.0
2018-Feb-11 16:25N 30°13' W 093°15'0 0.0
2018-Feb-11 16:00N 30°13' W 093°15'0 0.0
2018-Feb-11 15:29N 30°13' W 093°15'0 0.0
2018-Feb-11 15:00N 30°13' W 093°15'0 0.0
2018-Feb-11 14:30N 30°13' W 093°15'0 0.0
2018-Feb-11 14:00N 30°13' W 093°15'0 0.0
2018-Feb-11 13:30N 30°13' W 093°15'0 0.0
2018-Feb-11 13:00N 30°13' W 093°15'0 0.0
2018-Feb-11 12:14N 30°13' W 093°15'0 0.0
2018-Feb-11 11:56N 30°13' W 093°15'0 0.0
2018-Feb-11 11:28N 30°13' W 093°15'0 0.0
2018-Feb-11 11:00N 30°13' W 093°15'0 0.0
2018-Feb-11 10:30N 30°13' W 093°15'0 0.0
2018-Feb-11 10:00N 30°13' W 093°15'0 0.0
2018-Feb-11 09:30N 30°13' W 093°15'0 0.0
2018-Feb-11 08:48N 30°13' W 093°15'0 0.0
2018-Feb-11 08:30N 30°13' W 093°15'0 0.0
2018-Feb-11 07:59N 30°13' W 093°15'0 0.0
2018-Feb-11 07:28N 30°13' W 093°15'0 0.0
2018-Feb-11 06:59N 30°13' W 093°15'0 0.0
2018-Feb-11 06:23N 30°13' W 093°15'0 0.0
2018-Feb-11 06:00N 30°13' W 093°15'0 0.0
2018-Feb-11 05:30N 30°13' W 093°15'0 0.0
2018-Feb-11 04:57N 30°13' W 093°15'0 0.0
2018-Feb-11 04:30N 30°13' W 093°15'0 0.0
2018-Feb-11 04:00N 30°13' W 093°15'0 0.0
2018-Feb-11 03:30N 30°13' W 093°15'0 0.0
2018-Feb-11 03:00N 30°13' W 093°15'0 0.0
2018-Feb-11 02:20N 30°13' W 093°15'0 0.0
2018-Feb-11 01:58N 30°13' W 093°15'0 0.0
2018-Feb-11 01:26N 30°13' W 093°15'0 0.0
2018-Feb-11 01:00N 30°13' W 093°15'0 0.0
2018-Feb-11 00:28N 30°13' W 093°15'0 0.0
2018-Feb-11 00:00N 30°13' W 093°15'0 0.0
2018-Feb-10 23:29N 30°13' W 093°15'0 0.0
2018-Feb-10 22:59N 30°13' W 093°15'0 0.0
2018-Feb-10 22:26N 30°13' W 093°15'0 0.0
2018-Feb-10 22:00N 30°13' W 093°15'0 0.0
2018-Feb-10 21:21N 30°13' W 093°15'0 0.0
2018-Feb-10 21:00N 30°13' W 093°15'0 0.0
2018-Feb-10 20:30N 30°13' W 093°15'0 0.0
2018-Feb-10 20:00N 30°13' W 093°15'0 0.0
2018-Feb-10 19:30N 30°13' W 093°15'0 0.0
2018-Feb-10 18:59N 30°13' W 093°15'0 0.0
2018-Feb-10 18:30N 30°13' W 093°15'0 0.0
2018-Feb-10 17:59N 30°13' W 093°15'0 0.0
2018-Feb-10 17:27N 30°13' W 093°15'0 0.0
2018-Feb-10 16:44N 30°13' W 093°15'0 0.0
2018-Feb-10 16:25N 30°13' W 093°15'0 0.0
2018-Feb-10 16:00N 30°13' W 093°15'0 0.0
2018-Feb-10 15:29N 30°13' W 093°15'0 0.0
2018-Feb-10 14:57N 30°13' W 093°15'0 0.0
2018-Feb-10 14:30N 30°13' W 093°15'0 0.0
2018-Feb-10 14:00N 30°13' W 093°15'0 0.0
2018-Feb-10 13:30N 30°13' W 093°15'0 0.0
2018-Feb-10 13:00N 30°13' W 093°15'0 0.0
2018-Feb-10 12:30N 30°13' W 093°15'0 0.0
2018-Feb-10 12:00N 30°13' W 093°15'0 0.0
2018-Feb-10 11:27N 30°13' W 093°15'0 0.0
2018-Feb-10 10:55N 30°13' W 093°15'0 0.0
2018-Feb-10 10:30N 30°13' W 093°15'0 0.0
2018-Feb-10 09:48N 30°13' W 093°15'0 0.0
2018-Feb-10 09:28N 30°13' W 093°15'0 0.0
2018-Feb-10 08:57N 30°13' W 093°15'0 0.0
2018-Feb-10 08:30N 30°13' W 093°15'0 0.0
2018-Feb-10 08:00N 30°13' W 093°15'0 0.0
2018-Feb-10 07:30N 30°13' W 093°15'0 0.0
2018-Feb-10 06:58N 30°13' W 093°15'0 0.0
2018-Feb-10 06:30N 30°13' W 093°15'0 0.0
2018-Feb-10 06:00N 30°13' W 093°15'0 0.0
2018-Feb-10 05:29N 30°13' W 093°15'0 0.0
2018-Feb-10 05:00N 30°13' W 093°15'0 0.0
2018-Feb-10 04:25N 30°13' W 093°15'1 1.6
2018-Feb-10 04:00N 30°13' W 093°16'3 5.7
2018-Feb-10 03:30N 30°11' W 093°18'1 2.4
2018-Feb-10 03:00N 30°10' W 093°19'2 3.8
2018-Feb-10 02:30N 30°08' W 093°20'2 3.4
2018-Feb-10 02:00N 30°10' W 093°19'4 7.7
2018-Feb-10 01:30N 30°12' W 093°16'  

Dump ship's entire track history